createdAt,value
2019-05-06T00:02:04.559Z,2.80
2019-05-06T00:12:08.235Z,2.20
2019-05-06T00:22:11.391Z,2.20
2019-05-06T00:32:15.072Z,2.20
2019-05-06T00:42:37.811Z,2.13
2019-05-06T00:52:41.173Z,2.53
2019-05-06T01:02:44.170Z,2.70
2019-05-06T01:13:11.862Z,2.93
2019-05-06T01:23:14.849Z,2.60
2019-05-06T01:33:17.823Z,3.63
2019-05-06T01:43:25.778Z,3.60
2019-05-06T01:53:28.760Z,3.17
2019-05-06T02:03:31.752Z,3.23
2019-05-06T02:13:34.944Z,3.33
2019-05-06T02:23:41.781Z,3.87
2019-05-06T02:34:11.778Z,2.63
2019-05-06T02:44:14.738Z,3.33
2019-05-06T02:54:17.691Z,3.20
2019-05-06T03:04:23.452Z,3.33
2019-05-06T03:14:25.549Z,3.13
2019-05-06T03:24:50.654Z,3.43
2019-05-06T03:35:16.443Z,3.40
2019-05-06T03:45:04.119Z,3.80
2019-05-06T03:55:07.711Z,3.80
2019-05-06T04:05:13.458Z,4.60
2019-05-06T04:15:16.719Z,4.50
2019-05-06T04:25:58.565Z,3.73
2019-05-06T04:36:03.748Z,3.97
2019-05-06T04:46:06.474Z,4.07
2019-05-06T04:56:09.436Z,4.47
2019-05-06T05:06:13.611Z,4.93
2019-05-06T05:16:42.029Z,5.40
2019-05-06T05:26:47.109Z,5.40
2019-05-06T05:36:52.037Z,4.77
2019-05-06T05:46:55.276Z,5.23
2019-05-06T05:56:58.983Z,7.00
2019-05-06T06:07:02.722Z,6.70
2019-05-06T06:17:17.987Z,5.60
2019-05-06T06:27:22.325Z,5.80
2019-05-06T06:37:57.239Z,5.87
2019-05-06T06:48:00.250Z,6.50
2019-05-06T06:58:22.880Z,6.00
2019-05-06T07:08:36.675Z,5.43
2019-05-06T07:18:33.146Z,5.67
2019-05-06T07:28:35.786Z,6.10
2019-05-06T07:38:48.753Z,4.60
2019-05-06T07:48:51.967Z,4.23
2019-05-06T07:59:06.651Z,3.27
2019-05-06T08:09:10.110Z,2.93
2019-05-06T08:19:13.101Z,2.30
2019-05-06T08:29:16.119Z,3.10
2019-05-06T08:39:19.248Z,3.20
2019-05-06T08:49:22.597Z,5.13
2019-05-06T08:59:25.891Z,6.00
2019-05-06T09:09:28.885Z,5.47
2019-05-06T09:19:33.132Z,4.13
2019-05-06T09:29:43.024Z,2.63
2019-05-06T09:39:47.213Z,2.43
2019-05-06T09:49:50.166Z,2.80
2019-05-06T09:59:53.112Z,4.13
2019-05-06T10:09:56.085Z,4.28
2019-05-06T10:19:59.146Z,3.00
2019-05-06T10:30:05.625Z,3.13
2019-05-06T10:40:18.172Z,3.00
2019-05-06T10:50:22.950Z,3.10
2019-05-06T11:00:26.185Z,3.50
2019-05-06T11:10:38.070Z,2.37
2019-05-06T11:20:34.056Z,2.53
2019-05-06T11:30:55.144Z,2.70
2019-05-06T11:40:58.119Z,2.70
2019-05-06T11:51:03.019Z,2.67
2019-05-06T12:01:13.396Z,2.60
2019-05-06T12:11:16.072Z,2.67
2019-05-06T12:21:19.519Z,2.90
2019-05-06T12:31:23.782Z,3.23
2019-05-06T12:41:26.774Z,3.30
2019-05-06T12:51:32.107Z,3.77
2019-05-06T13:01:34.945Z,3.17
2019-05-06T13:11:38.071Z,3.63
2019-05-06T13:21:42.248Z,2.90
2019-05-06T13:31:45.992Z,3.47
2019-05-06T13:41:49.073Z,2.90
2019-05-06T13:52:06.227Z,3.10
2019-05-06T14:02:27.413Z,3.07
2019-05-06T14:12:32.967Z,2.70
2019-05-06T14:22:35.533Z,3.20
2019-05-06T14:32:38.524Z,3.07
2019-05-06T14:42:42.340Z,2.80
2019-05-06T14:52:45.486Z,2.77
2019-05-06T15:02:48.745Z,3.23
2019-05-06T15:12:53.412Z,2.07
2019-05-06T15:22:56.662Z,2.83
2019-05-06T15:32:59.694Z,3.07
2019-05-06T15:43:02.838Z,2.40
2019-05-06T15:53:05.827Z,2.73
2019-05-06T16:03:08.897Z,2.57
2019-05-06T16:13:12.923Z,3.07
2019-05-06T16:23:34.604Z,3.20
2019-05-06T16:33:37.586Z,2.90
2019-05-06T16:43:42.726Z,2.83
2019-05-06T16:53:46.007Z,2.50
2019-05-06T17:04:03.190Z,2.93
2019-05-06T17:14:06.694Z,2.13
2019-05-06T17:24:09.695Z,2.40
2019-05-06T17:34:15.919Z,2.40
2019-05-06T17:44:22.756Z,2.50
2019-05-06T17:54:26.102Z,2.40
2019-05-06T18:04:29.276Z,2.30
2019-05-06T18:14:33.213Z,2.47
2019-05-06T18:24:36.476Z,2.50
2019-05-06T18:34:39.507Z,2.43
2019-05-06T18:44:42.871Z,2.40
2019-05-06T18:54:45.860Z,2.40
2019-05-06T19:05:08.447Z,2.23
2019-05-06T19:15:12.721Z,2.40
2019-05-06T19:25:16.115Z,2.27
2019-05-06T19:35:19.119Z,2.60
2019-05-06T19:45:22.507Z,2.60
2019-05-06T19:55:26.831Z,2.40
2019-05-06T20:05:46.107Z,2.13
2019-05-06T20:15:49.133Z,2.87
2019-05-06T20:25:52.160Z,2.43
2019-05-06T20:35:55.135Z,2.63
2019-05-06T20:45:58.173Z,2.70
2019-05-06T20:56:02.823Z,2.60
2019-05-06T21:06:05.993Z,2.40
2019-05-06T21:16:12.918Z,2.80
2019-05-06T21:26:15.687Z,2.83
2019-05-06T21:36:18.668Z,2.87
2019-05-06T21:46:21.643Z,2.73
2019-05-06T21:56:24.604Z,2.70
2019-05-06T22:06:27.990Z,2.50
2019-05-06T22:16:32.356Z,2.37
2019-05-06T22:26:35.476Z,2.20
2019-05-06T22:36:38.465Z,2.67
2019-05-06T22:46:42.600Z,2.77
2019-05-06T22:56:45.579Z,2.77
2019-05-06T23:06:48.710Z,3.03
2019-05-06T23:16:52.168Z,3.53
2019-05-06T23:26:55.756Z,3.23
2019-05-06T23:37:27.103Z,3.00
2019-05-06T23:48:25.292Z,3.57
2019-05-06T23:58:29.167Z,3.17
